sensor_id;sensor_type;location;lat;lon;timestamp;P1;durP1;ratioP1;P2;durP2;ratioP2
65751;SDS011;52486;51.098;13.770;2023-10-31T00:00:35;1.60;;;1.50;;
65751;SDS011;52486;51.098;13.770;2023-10-31T00:03:01;1.70;;;1.60;;
65751;SDS011;52486;51.098;13.770;2023-10-31T00:05:26;2.13;;;1.60;;
65751;SDS011;52486;51.098;13.770;2023-10-31T00:07:52;1.75;;;1.63;;
65751;SDS011;52486;51.098;13.770;2023-10-31T00:10:19;1.73;;;1.50;;
65751;SDS011;52486;51.098;13.770;2023-10-31T00:12:44;1.80;;;1.60;;
65751;SDS011;52486;51.098;13.770;2023-10-31T00:15:10;1.60;;;1.50;;
65751;SDS011;52486;51.098;13.770;2023-10-31T00:17:36;1.58;;;1.48;;
65751;SDS011;52486;51.098;13.770;2023-10-31T00:20:03;1.85;;;1.55;;
65751;SDS011;52486;51.098;13.770;2023-10-31T00:22:30;1.73;;;1.50;;
65751;SDS011;52486;51.098;13.770;2023-10-31T00:24:55;1.88;;;1.48;;
65751;SDS011;52486;51.098;13.770;2023-10-31T00:27:21;2.95;;;1.60;;
65751;SDS011;52486;51.098;13.770;2023-10-31T00:29:47;3.65;;;2.00;;
65751;SDS011;52486;51.098;13.770;2023-10-31T00:32:13;1.60;;;1.50;;
65751;SDS011;52486;51.098;13.770;2023-10-31T00:34:39;1.92;;;1.65;;
65751;SDS011;52486;51.098;13.770;2023-10-31T00:37:05;1.55;;;1.30;;
65751;SDS011;52486;51.098;13.770;2023-10-31T00:39:31;1.40;;;1.25;;
65751;SDS011;52486;51.098;13.770;2023-10-31T00:41:59;1.55;;;1.45;;
65751;SDS011;52486;51.098;13.770;2023-10-31T00:44:25;1.63;;;1.40;;
65751;SDS011;52486;51.098;13.770;2023-10-31T00:46:51;1.88;;;1.70;;
65751;SDS011;52486;51.098;13.770;2023-10-31T00:49:16;1.52;;;1.42;;
65751;SDS011;52486;51.098;13.770;2023-10-31T00:51:42;1.98;;;1.70;;
65751;SDS011;52486;51.098;13.770;2023-10-31T00:54:08;1.75;;;1.50;;
65751;SDS011;52486;51.098;13.770;2023-10-31T00:56:34;1.38;;;1.27;;
65751;SDS011;52486;51.098;13.770;2023-10-31T00:59:00;1.52;;;1.42;;
65751;SDS011;52486;51.098;13.770;2023-10-31T01:01:26;1.55;;;1.33;;
65751;SDS011;52486;51.098;13.770;2023-10-31T01:03:52;1.85;;;1.60;;
65751;SDS011;52486;51.098;13.770;2023-10-31T01:06:18;1.63;;;1.38;;
65751;SDS011;52486;51.098;13.770;2023-10-31T01:08:44;1.40;;;1.30;;
65751;SDS011;52486;51.098;13.770;2023-10-31T01:11:10;1.55;;;1.45;;
65751;SDS011;52486;51.098;13.770;2023-10-31T01:13:36;1.98;;;1.48;;
65751;SDS011;52486;51.098;13.770;2023-10-31T01:16:02;1.35;;;1.25;;
65751;SDS011;52486;51.098;13.770;2023-10-31T01:18:28;1.67;;;1.40;;
65751;SDS011;52486;51.098;13.770;2023-10-31T01:20:54;1.52;;;1.35;;
65751;SDS011;52486;51.098;13.770;2023-10-31T01:23:20;1.73;;;1.33;;
65751;SDS011;52486;51.098;13.770;2023-10-31T01:25:46;1.50;;;1.40;;
65751;SDS011;52486;51.098;13.770;2023-10-31T01:28:12;2.03;;;1.45;;
65751;SDS011;52486;51.098;13.770;2023-10-31T01:30:38;1.67;;;1.58;;
65751;SDS011;52486;51.098;13.770;2023-10-31T01:33:04;1.83;;;1.38;;
65751;SDS011;52486;51.098;13.770;2023-10-31T01:35:29;1.65;;;1.52;;
65751;SDS011;52486;51.098;13.770;2023-10-31T01:37:55;1.85;;;1.40;;
65751;SDS011;52486;51.098;13.770;2023-10-31T01:40:21;1.83;;;1.38;;
65751;SDS011;52486;51.098;13.770;2023-10-31T01:42:47;2.40;;;1.50;;
65751;SDS011;52486;51.098;13.770;2023-10-31T01:45:13;1.45;;;1.30;;
65751;SDS011;52486;51.098;13.770;2023-10-31T01:47:39;1.50;;;1.40;;
65751;SDS011;52486;51.098;13.770;2023-10-31T01:50:06;1.75;;;1.65;;
65751;SDS011;52486;51.098;13.770;2023-10-31T01:52:33;1.50;;;1.40;;
65751;SDS011;52486;51.098;13.770;2023-10-31T01:55:01;1.45;;;1.33;;
65751;SDS011;52486;51.098;13.770;2023-10-31T01:57:28;1.45;;;1.35;;
65751;SDS011;52486;51.098;13.770;2023-10-31T01:59:54;1.55;;;1.45;;
65751;SDS011;52486;51.098;13.770;2023-10-31T02:02:20;2.38;;;1.30;;
65751;SDS011;52486;51.098;13.770;2023-10-31T02:04:48;1.40;;;1.30;;
65751;SDS011;52486;51.098;13.770;2023-10-31T02:07:14;1.42;;;1.33;;
65751;SDS011;52486;51.098;13.770;2023-10-31T02:09:40;1.25;;;1.15;;
65751;SDS011;52486;51.098;13.770;2023-10-31T02:12:06;1.25;;;1.15;;
65751;SDS011;52486;51.098;13.770;2023-10-31T02:14:32;1.80;;;1.48;;
65751;SDS011;52486;51.098;13.770;2023-10-31T02:16:58;1.45;;;1.25;;
65751;SDS011;52486;51.098;13.770;2023-10-31T02:19:24;1.88;;;1.30;;
65751;SDS011;52486;51.098;13.770;2023-10-31T02:21:50;1.50;;;1.40;;
65751;SDS011;52486;51.098;13.770;2023-10-31T02:24:16;1.48;;;1.38;;
65751;SDS011;52486;51.098;13.770;2023-10-31T02:26:42;1.55;;;1.40;;
65751;SDS011;52486;51.098;13.770;2023-10-31T02:29:08;1.48;;;1.33;;
65751;SDS011;52486;51.098;13.770;2023-10-31T02:31:34;1.42;;;1.30;;
65751;SDS011;52486;51.098;13.770;2023-10-31T02:33:59;2.60;;;1.30;;
65751;SDS011;52486;51.098;13.770;2023-10-31T02:36:25;1.50;;;1.40;;
65751;SDS011;52486;51.098;13.770;2023-10-31T02:38:52;1.30;;;1.20;;
65751;SDS011;52486;51.098;13.770;2023-10-31T02:41:18;1.80;;;1.40;;
65751;SDS011;52486;51.098;13.770;2023-10-31T02:43:45;1.35;;;1.25;;
65751;SDS011;52486;51.098;13.770;2023-10-31T02:46:10;1.77;;;1.30;;
65751;SDS011;52486;51.098;13.770;2023-10-31T02:48:38;1.55;;;1.23;;
65751;SDS011;52486;51.098;13.770;2023-10-31T02:51:05;1.40;;;1.30;;
65751;SDS011;52486;51.098;13.770;2023-10-31T02:53:32;2.00;;;1.40;;
65751;SDS011;52486;51.098;13.770;2023-10-31T02:55:58;1.60;;;1.48;;
65751;SDS011;52486;51.098;13.770;2023-10-31T02:58:24;1.55;;;1.20;;
65751;SDS011;52486;51.098;13.770;2023-10-31T03:00:50;1.40;;;1.30;;
65751;SDS011;52486;51.098;13.770;2023-10-31T03:03:16;1.50;;;1.30;;
65751;SDS011;52486;51.098;13.770;2023-10-31T03:05:42;1.23;;;1.10;;
65751;SDS011;52486;51.098;13.770;2023-10-31T03:08:08;1.85;;;1.50;;
65751;SDS011;52486;51.098;13.770;2023-10-31T03:10:35;1.60;;;1.45;;
65751;SDS011;52486;51.098;13.770;2023-10-31T03:13:01;1.20;;;1.10;;
65751;SDS011;52486;51.098;13.770;2023-10-31T03:15:27;1.30;;;1.20;;
65751;SDS011;52486;51.098;13.770;2023-10-31T03:17:53;1.50;;;1.40;;
65751;SDS011;52486;51.098;13.770;2023-10-31T03:20:19;1.13;;;1.02;;
65751;SDS011;52486;51.098;13.770;2023-10-31T03:22:45;1.52;;;1.20;;
65751;SDS011;52486;51.098;13.770;2023-10-31T03:25:10;1.42;;;1.30;;
65751;SDS011;52486;51.098;13.770;2023-10-31T03:27:36;1.13;;;1.08;;
65751;SDS011;52486;51.098;13.770;2023-10-31T03:30:03;1.30;;;1.20;;
65751;SDS011;52486;51.098;13.770;2023-10-31T03:32:29;1.40;;;1.30;;
65751;SDS011;52486;51.098;13.770;2023-10-31T03:34:55;1.30;;;1.20;;
65751;SDS011;52486;51.098;13.770;2023-10-31T03:37:21;1.40;;;1.30;;
65751;SDS011;52486;51.098;13.770;2023-10-31T03:39:47;1.27;;;1.17;;
65751;SDS011;52486;51.098;13.770;2023-10-31T03:42:12;1.20;;;1.10;;
65751;SDS011;52486;51.098;13.770;2023-10-31T03:44:38;1.95;;;1.20;;
65751;SDS011;52486;51.098;13.770;2023-10-31T03:47:04;1.30;;;1.20;;
65751;SDS011;52486;51.098;13.770;2023-10-31T03:49:30;1.40;;;1.30;;
65751;SDS011;52486;51.098;13.770;2023-10-31T03:51:57;1.42;;;1.30;;
65751;SDS011;52486;51.098;13.770;2023-10-31T03:54:22;1.33;;;1.23;;
65751;SDS011;52486;51.098;13.770;2023-10-31T03:56:48;1.98;;;1.10;;
65751;SDS011;52486;51.098;13.770;2023-10-31T03:59:14;1.10;;;1.05;;
65751;SDS011;52486;51.098;13.770;2023-10-31T04:01:40;2.20;;;1.20;;
65751;SDS011;52486;51.098;13.770;2023-10-31T04:04:05;1.00;;;0.93;;
65751;SDS011;52486;51.098;13.770;2023-10-31T04:06:31;1.40;;;1.25;;
65751;SDS011;52486;51.098;13.770;2023-10-31T04:08:57;1.20;;;1.10;;
65751;SDS011;52486;51.098;13.770;2023-10-31T04:11:23;1.40;;;1.30;;
65751;SDS011;52486;51.098;13.770;2023-10-31T04:13:49;1.48;;;1.38;;
65751;SDS011;52486;51.098;13.770;2023-10-31T04:16:15;1.30;;;1.20;;
65751;SDS011;52486;51.098;13.770;2023-10-31T04:18:41;1.88;;;1.35;;
65751;SDS011;52486;51.098;13.770;2023-10-31T04:21:07;1.40;;;1.30;;
65751;SDS011;52486;51.098;13.770;2023-10-31T04:23:33;1.00;;;1.00;;
65751;SDS011;52486;51.098;13.770;2023-10-31T04:25:59;1.38;;;1.27;;
65751;SDS011;52486;51.098;13.770;2023-10-31T04:28:25;1.67;;;1.25;;
65751;SDS011;52486;51.098;13.770;2023-10-31T04:30:51;1.33;;;1.23;;
65751;SDS011;52486;51.098;13.770;2023-10-31T04:33:17;1.25;;;1.20;;
65751;SDS011;52486;51.098;13.770;2023-10-31T04:35:43;1.33;;;1.20;;
65751;SDS011;52486;51.098;13.770;2023-10-31T04:38:09;1.42;;;1.27;;
65751;SDS011;52486;51.098;13.770;2023-10-31T04:40:36;1.40;;;1.30;;
65751;SDS011;52486;51.098;13.770;2023-10-31T04:43:02;1.60;;;1.25;;
65751;SDS011;52486;51.098;13.770;2023-10-31T04:45:28;1.48;;;1.38;;
65751;SDS011;52486;51.098;13.770;2023-10-31T04:47:54;1.13;;;1.10;;
65751;SDS011;52486;51.098;13.770;2023-10-31T04:50:20;1.40;;;1.30;;
65751;SDS011;52486;51.098;13.770;2023-10-31T04:52:46;1.00;;;1.00;;
65751;SDS011;52486;51.098;13.770;2023-10-31T04:55:12;1.40;;;1.30;;
65751;SDS011;52486;51.098;13.770;2023-10-31T04:57:38;1.30;;;1.20;;
65751;SDS011;52486;51.098;13.770;2023-10-31T05:00:04;1.23;;;1.13;;
65751;SDS011;52486;51.098;13.770;2023-10-31T05:02:31;1.42;;;1.33;;
65751;SDS011;52486;51.098;13.770;2023-10-31T05:04:57;1.00;;;1.00;;
65751;SDS011;52486;51.098;13.770;2023-10-31T05:07:23;1.85;;;1.10;;
65751;SDS011;52486;51.098;13.770;2023-10-31T05:09:50;1.33;;;1.23;;
65751;SDS011;52486;51.098;13.770;2023-10-31T05:12:15;1.30;;;1.20;;
65751;SDS011;52486;51.098;13.770;2023-10-31T05:14:41;1.58;;;1.33;;
65751;SDS011;52486;51.098;13.770;2023-10-31T05:17:07;1.05;;;0.98;;
65751;SDS011;52486;51.098;13.770;2023-10-31T05:19:33;1.33;;;1.23;;
65751;SDS011;52486;51.098;13.770;2023-10-31T05:21:59;1.35;;;1.25;;
65751;SDS011;52486;51.098;13.770;2023-10-31T05:24:25;1.15;;;0.93;;
65751;SDS011;52486;51.098;13.770;2023-10-31T05:26:51;1.20;;;1.10;;
65751;SDS011;52486;51.098;13.770;2023-10-31T05:29:17;1.08;;;0.98;;
65751;SDS011;52486;51.098;13.770;2023-10-31T05:31:43;1.33;;;1.23;;
65751;SDS011;52486;51.098;13.770;2023-10-31T05:34:08;1.20;;;1.10;;
65751;SDS011;52486;51.098;13.770;2023-10-31T05:36:34;1.30;;;1.20;;
65751;SDS011;52486;51.098;13.770;2023-10-31T05:39:00;1.30;;;1.20;;
65751;SDS011;52486;51.098;13.770;2023-10-31T05:41:26;1.00;;;0.90;;
65751;SDS011;52486;51.098;13.770;2023-10-31T05:43:52;1.20;;;1.10;;
65751;SDS011;52486;51.098;13.770;2023-10-31T05:46:18;1.08;;;1.00;;
65751;SDS011;52486;51.098;13.770;2023-10-31T05:48:44;1.17;;;1.08;;
65751;SDS011;52486;51.098;13.770;2023-10-31T05:51:15;1.30;;;1.20;;
65751;SDS011;52486;51.098;13.770;2023-10-31T05:53:43;1.30;;;1.20;;
65751;SDS011;52486;51.098;13.770;2023-10-31T05:56:11;1.42;;;1.20;;
65751;SDS011;52486;51.098;13.770;2023-10-31T05:58:37;1.10;;;1.00;;
65751;SDS011;52486;51.098;13.770;2023-10-31T06:01:04;1.02;;;1.00;;
65751;SDS011;52486;51.098;13.770;2023-10-31T06:03:30;1.33;;;1.20;;
65751;SDS011;52486;51.098;13.770;2023-10-31T06:05:56;1.48;;;1.20;;
65751;SDS011;52486;51.098;13.770;2023-10-31T06:08:22;0.80;;;0.80;;
65751;SDS011;52486;51.098;13.770;2023-10-31T06:10:49;1.08;;;1.02;;
65751;SDS011;52486;51.098;13.770;2023-10-31T06:13:16;0.93;;;0.93;;
65751;SDS011;52486;51.098;13.770;2023-10-31T06:15:42;1.30;;;1.20;;
65751;SDS011;52486;51.098;13.770;2023-10-31T06:18:07;1.20;;;1.10;;
65751;SDS011;52486;51.098;13.770;2023-10-31T06:20:33;1.25;;;1.15;;
65751;SDS011;52486;51.098;13.770;2023-10-31T06:23:01;0.90;;;0.90;;
65751;SDS011;52486;51.098;13.770;2023-10-31T06:25:28;1.08;;;0.88;;
65751;SDS011;52486;51.098;13.770;2023-10-31T06:27:54;0.90;;;0.90;;
65751;SDS011;52486;51.098;13.770;2023-10-31T06:30:20;1.17;;;1.00;;
65751;SDS011;52486;51.098;13.770;2023-10-31T06:32:46;1.08;;;1.00;;
65751;SDS011;52486;51.098;13.770;2023-10-31T06:35:11;0.90;;;0.90;;
65751;SDS011;52486;51.098;13.770;2023-10-31T06:37:37;1.10;;;1.00;;
65751;SDS011;52486;51.098;13.770;2023-10-31T06:40:04;0.90;;;0.90;;
65751;SDS011;52486;51.098;13.770;2023-10-31T06:42:30;0.90;;;0.90;;
65751;SDS011;52486;51.098;13.770;2023-10-31T06:44:56;0.80;;;0.80;;
65751;SDS011;52486;51.098;13.770;2023-10-31T06:47:22;0.85;;;0.85;;
65751;SDS011;52486;51.098;13.770;2023-10-31T06:49:48;1.27;;;1.00;;
65751;SDS011;52486;51.098;13.770;2023-10-31T06:52:14;1.23;;;1.13;;
65751;SDS011;52486;51.098;13.770;2023-10-31T06:54:40;1.10;;;1.00;;
65751;SDS011;52486;51.098;13.770;2023-10-31T06:57:06;1.20;;;1.10;;
65751;SDS011;52486;51.098;13.770;2023-10-31T06:59:32;1.10;;;1.00;;
65751;SDS011;52486;51.098;13.770;2023-10-31T07:01:58;0.82;;;0.82;;
65751;SDS011;52486;51.098;13.770;2023-10-31T07:04:24;0.90;;;0.90;;
65751;SDS011;52486;51.098;13.770;2023-10-31T07:06:49;1.08;;;1.05;;
65751;SDS011;52486;51.098;13.770;2023-10-31T07:09:21;0.90;;;0.90;;
65751;SDS011;52486;51.098;13.770;2023-10-31T07:11:47;0.80;;;0.80;;
65751;SDS011;52486;51.098;13.770;2023-10-31T07:14:13;0.93;;;0.93;;
65751;SDS011;52486;51.098;13.770;2023-10-31T07:16:39;1.00;;;0.90;;
65751;SDS011;52486;51.098;13.770;2023-10-31T07:19:05;0.98;;;0.85;;
65751;SDS011;52486;51.098;13.770;2023-10-31T07:21:31;0.80;;;0.80;;
65751;SDS011;52486;51.098;13.770;2023-10-31T07:23:57;1.20;;;1.10;;
65751;SDS011;52486;51.098;13.770;2023-10-31T07:26:23;0.80;;;0.80;;
65751;SDS011;52486;51.098;13.770;2023-10-31T07:28:50;0.90;;;0.90;;
65751;SDS011;52486;51.098;13.770;2023-10-31T07:31:16;1.15;;;1.05;;
65751;SDS011;52486;51.098;13.770;2023-10-31T07:33:43;1.00;;;1.00;;
65751;SDS011;52486;51.098;13.770;2023-10-31T07:36:10;1.30;;;0.90;;
65751;SDS011;52486;51.098;13.770;2023-10-31T07:38:36;0.77;;;0.70;;
65751;SDS011;52486;51.098;13.770;2023-10-31T07:41:02;1.00;;;1.00;;
65751;SDS011;52486;51.098;13.770;2023-10-31T07:43:28;0.90;;;0.90;;
65751;SDS011;52486;51.098;13.770;2023-10-31T07:45:54;0.80;;;0.80;;
65751;SDS011;52486;51.098;13.770;2023-10-31T07:48:20;1.10;;;0.98;;
65751;SDS011;52486;51.098;13.770;2023-10-31T07:50:46;0.80;;;0.80;;
65751;SDS011;52486;51.098;13.770;2023-10-31T07:53:12;1.00;;;0.90;;
65751;SDS011;52486;51.098;13.770;2023-10-31T07:55:38;1.05;;;0.90;;
65751;SDS011;52486;51.098;13.770;2023-10-31T07:58:04;0.70;;;0.70;;
65751;SDS011;52486;51.098;13.770;2023-10-31T08:00:30;0.90;;;0.90;;
65751;SDS011;52486;51.098;13.770;2023-10-31T08:02:58;0.68;;;0.68;;
65751;SDS011;52486;51.098;13.770;2023-10-31T08:05:24;0.70;;;0.70;;
65751;SDS011;52486;51.098;13.770;2023-10-31T08:07:50;0.90;;;0.90;;
65751;SDS011;52486;51.098;13.770;2023-10-31T08:10:15;1.02;;;0.90;;
65751;SDS011;52486;51.098;13.770;2023-10-31T08:12:41;0.75;;;0.75;;
65751;SDS011;52486;51.098;13.770;2023-10-31T08:15:07;0.63;;;0.63;;
65751;SDS011;52486;51.098;13.770;2023-10-31T08:17:34;0.80;;;0.80;;
65751;SDS011;52486;51.098;13.770;2023-10-31T08:20:00;0.95;;;0.90;;
65751;SDS011;52486;51.098;13.770;2023-10-31T08:22:28;0.77;;;0.70;;
65751;SDS011;52486;51.098;13.770;2023-10-31T08:24:54;0.85;;;0.80;;
65751;SDS011;52486;51.098;13.770;2023-10-31T08:27:20;0.60;;;0.60;;
65751;SDS011;52486;51.098;13.770;2023-10-31T08:29:46;0.80;;;0.80;;
65751;SDS011;52486;51.098;13.770;2023-10-31T08:32:12;1.02;;;0.80;;
65751;SDS011;52486;51.098;13.770;2023-10-31T08:34:38;1.58;;;0.80;;
65751;SDS011;52486;51.098;13.770;2023-10-31T08:37:04;0.85;;;0.85;;
65751;SDS011;52486;51.098;13.770;2023-10-31T08:39:30;0.80;;;0.80;;
65751;SDS011;52486;51.098;13.770;2023-10-31T08:41:57;0.85;;;0.85;;
65751;SDS011;52486;51.098;13.770;2023-10-31T08:44:23;0.70;;;0.70;;
65751;SDS011;52486;51.098;13.770;2023-10-31T08:46:49;1.05;;;0.63;;
65751;SDS011;52486;51.098;13.770;2023-10-31T08:49:15;0.70;;;0.70;;
65751;SDS011;52486;51.098;13.770;2023-10-31T08:51:42;0.70;;;0.70;;
65751;SDS011;52486;51.098;13.770;2023-10-31T08:54:09;0.75;;;0.75;;
65751;SDS011;52486;51.098;13.770;2023-10-31T08:56:35;1.15;;;0.60;;
65751;SDS011;52486;51.098;13.770;2023-10-31T08:59:01;0.80;;;0.80;;
65751;SDS011;52486;51.098;13.770;2023-10-31T09:01:27;0.80;;;0.80;;
65751;SDS011;52486;51.098;13.770;2023-10-31T09:03:56;0.80;;;0.80;;
65751;SDS011;52486;51.098;13.770;2023-10-31T09:06:23;0.70;;;0.70;;
65751;SDS011;52486;51.098;13.770;2023-10-31T09:08:49;0.70;;;0.70;;
65751;SDS011;52486;51.098;13.770;2023-10-31T09:11:15;0.75;;;0.75;;
65751;SDS011;52486;51.098;13.770;2023-10-31T09:13:41;0.70;;;0.70;;
65751;SDS011;52486;51.098;13.770;2023-10-31T09:16:07;0.60;;;0.60;;
65751;SDS011;52486;51.098;13.770;2023-10-31T09:18:33;0.57;;;0.57;;
65751;SDS011;52486;51.098;13.770;2023-10-31T09:20:59;0.60;;;0.60;;
65751;SDS011;52486;51.098;13.770;2023-10-31T09:23:25;0.57;;;0.57;;
65751;SDS011;52486;51.098;13.770;2023-10-31T09:25:51;0.60;;;0.60;;
65751;SDS011;52486;51.098;13.770;2023-10-31T09:28:17;0.60;;;0.60;;
65751;SDS011;52486;51.098;13.770;2023-10-31T09:30:43;0.57;;;0.57;;
65751;SDS011;52486;51.098;13.770;2023-10-31T09:33:08;0.77;;;0.77;;
65751;SDS011;52486;51.098;13.770;2023-10-31T09:35:34;0.50;;;0.50;;
65751;SDS011;52486;51.098;13.770;2023-10-31T09:38:00;0.80;;;0.80;;
65751;SDS011;52486;51.098;13.770;2023-10-31T09:40:25;0.50;;;0.50;;
65751;SDS011;52486;51.098;13.770;2023-10-31T09:42:51;0.60;;;0.60;;
65751;SDS011;52486;51.098;13.770;2023-10-31T09:45:18;0.50;;;0.50;;
65751;SDS011;52486;51.098;13.770;2023-10-31T09:47:44;0.65;;;0.65;;
65751;SDS011;52486;51.098;13.770;2023-10-31T09:50:10;0.70;;;0.70;;
65751;SDS011;52486;51.098;13.770;2023-10-31T09:52:36;0.50;;;0.50;;
65751;SDS011;52486;51.098;13.770;2023-10-31T09:55:03;0.68;;;0.60;;
65751;SDS011;52486;51.098;13.770;2023-10-31T09:57:29;0.60;;;0.60;;
65751;SDS011;52486;51.098;13.770;2023-10-31T09:59:55;0.60;;;0.60;;
65751;SDS011;52486;51.098;13.770;2023-10-31T10:02:21;0.65;;;0.65;;
65751;SDS011;52486;51.098;13.770;2023-10-31T10:04:48;0.80;;;0.80;;
65751;SDS011;52486;51.098;13.770;2023-10-31T10:07:17;0.70;;;0.70;;
65751;SDS011;52486;51.098;13.770;2023-10-31T10:09:44;0.70;;;0.70;;
65751;SDS011;52486;51.098;13.770;2023-10-31T10:12:15;1.02;;;0.70;;
65751;SDS011;52486;51.098;13.770;2023-10-31T10:17:21;0.55;;;0.55;;
65751;SDS011;52486;51.098;13.770;2023-10-31T10:20:04;0.55;;;0.55;;
65751;SDS011;52486;51.098;13.770;2023-10-31T10:22:30;0.50;;;0.50;;
65751;SDS011;52486;51.098;13.770;2023-10-31T10:24:56;0.57;;;0.57;;
65751;SDS011;52486;51.098;13.770;2023-10-31T10:27:22;0.47;;;0.47;;
65751;SDS011;52486;51.098;13.770;2023-10-31T10:29:49;0.50;;;0.50;;
65751;SDS011;52486;51.098;13.770;2023-10-31T10:32:19;0.65;;;0.65;;
65751;SDS011;52486;51.098;13.770;2023-10-31T10:34:45;0.70;;;0.60;;
65751;SDS011;52486;51.098;13.770;2023-10-31T10:37:11;0.85;;;0.50;;
65751;SDS011;52486;51.098;13.770;2023-10-31T10:39:37;0.40;;;0.40;;
65751;SDS011;52486;51.098;13.770;2023-10-31T10:42:07;0.50;;;0.50;;
65751;SDS011;52486;51.098;13.770;2023-10-31T10:44:35;0.50;;;0.50;;
65751;SDS011;52486;51.098;13.770;2023-10-31T10:47:06;0.45;;;0.45;;
65751;SDS011;52486;51.098;13.770;2023-10-31T10:49:33;0.77;;;0.77;;
65751;SDS011;52486;51.098;13.770;2023-10-31T10:52:14;0.60;;;0.60;;
65751;SDS011;52486;51.098;13.770;2023-10-31T11:00:03;0.60;;;0.60;;
65751;SDS011;52486;51.098;13.770;2023-10-31T11:02:31;0.65;;;0.65;;
65751;SDS011;52486;51.098;13.770;2023-10-31T11:04:58;0.55;;;0.55;;
65751;SDS011;52486;51.098;13.770;2023-10-31T11:07:24;0.40;;;0.40;;
65751;SDS011;52486;51.098;13.770;2023-10-31T11:09:52;0.40;;;0.40;;
65751;SDS011;52486;51.098;13.770;2023-10-31T11:12:18;0.40;;;0.40;;
65751;SDS011;52486;51.098;13.770;2023-10-31T11:14:47;0.60;;;0.60;;
65751;SDS011;52486;51.098;13.770;2023-10-31T11:17:32;0.50;;;0.50;;
65751;SDS011;52486;51.098;13.770;2023-10-31T11:20:00;0.60;;;0.60;;
65751;SDS011;52486;51.098;13.770;2023-10-31T11:22:40;0.50;;;0.50;;
65751;SDS011;52486;51.098;13.770;2023-10-31T11:25:09;0.60;;;0.60;;
65751;SDS011;52486;51.098;13.770;2023-10-31T11:27:37;0.50;;;0.50;;
65751;SDS011;52486;51.098;13.770;2023-10-31T11:30:08;0.50;;;0.50;;
65751;SDS011;52486;51.098;13.770;2023-10-31T11:33:33;0.70;;;0.50;;
65751;SDS011;52486;51.098;13.770;2023-10-31T11:35:40;0.40;;;0.40;;
65751;SDS011;52486;51.098;13.770;2023-10-31T11:38:09;0.50;;;0.50;;
65751;SDS011;52486;51.098;13.770;2023-10-31T11:40:37;0.30;;;0.30;;
65751;SDS011;52486;51.098;13.770;2023-10-31T11:43:09;0.57;;;0.40;;
65751;SDS011;52486;51.098;13.770;2023-10-31T11:45:37;0.47;;;0.47;;
65751;SDS011;52486;51.098;13.770;2023-10-31T11:48:10;0.50;;;0.50;;
65751;SDS011;52486;51.098;13.770;2023-10-31T11:50:36;0.40;;;0.40;;
65751;SDS011;52486;51.098;13.770;2023-10-31T11:53:04;0.50;;;0.50;;
65751;SDS011;52486;51.098;13.770;2023-10-31T11:58:25;0.50;;;0.50;;
65751;SDS011;52486;51.098;13.770;2023-10-31T12:01:05;0.90;;;0.45;;
65751;SDS011;52486;51.098;13.770;2023-10-31T12:03:39;0.40;;;0.35;;
65751;SDS011;52486;51.098;13.770;2023-10-31T12:06:12;0.50;;;0.50;;
65751;SDS011;52486;51.098;13.770;2023-10-31T12:08:40;0.60;;;0.60;;
65751;SDS011;52486;51.098;13.770;2023-10-31T12:13:35;0.50;;;0.50;;
65751;SDS011;52486;51.098;13.770;2023-10-31T12:16:05;0.50;;;0.50;;
65751;SDS011;52486;51.098;13.770;2023-10-31T12:18:33;0.40;;;0.40;;
65751;SDS011;52486;51.098;13.770;2023-10-31T12:21:02;0.30;;;0.30;;
65751;SDS011;52486;51.098;13.770;2023-10-31T12:23:28;0.30;;;0.30;;
65751;SDS011;52486;51.098;13.770;2023-10-31T12:25:54;0.45;;;0.45;;
65751;SDS011;52486;51.098;13.770;2023-10-31T12:28:21;0.45;;;0.45;;
65751;SDS011;52486;51.098;13.770;2023-10-31T12:30:48;0.45;;;0.45;;
65751;SDS011;52486;51.098;13.770;2023-10-31T12:33:15;0.45;;;0.45;;
65751;SDS011;52486;51.098;13.770;2023-10-31T12:35:41;0.60;;;0.50;;
65751;SDS011;52486;51.098;13.770;2023-10-31T12:38:11;0.30;;;0.30;;
65751;SDS011;52486;51.098;13.770;2023-10-31T12:40:39;0.50;;;0.47;;
65751;SDS011;52486;51.098;13.770;2023-10-31T12:43:06;0.25;;;0.25;;
65751;SDS011;52486;51.098;13.770;2023-10-31T12:45:32;0.30;;;0.30;;
65751;SDS011;52486;51.098;13.770;2023-10-31T12:48:02;0.40;;;0.40;;
65751;SDS011;52486;51.098;13.770;2023-10-31T12:50:29;0.50;;;0.50;;
65751;SDS011;52486;51.098;13.770;2023-10-31T12:52:56;0.50;;;0.50;;
65751;SDS011;52486;51.098;13.770;2023-10-31T12:55:25;0.50;;;0.50;;
65751;SDS011;52486;51.098;13.770;2023-10-31T12:57:53;0.45;;;0.45;;
65751;SDS011;52486;51.098;13.770;2023-10-31T13:00:20;0.40;;;0.40;;
65751;SDS011;52486;51.098;13.770;2023-10-31T13:02:58;0.35;;;0.35;;
65751;SDS011;52486;51.098;13.770;2023-10-31T13:05:25;0.50;;;0.43;;
65751;SDS011;52486;51.098;13.770;2023-10-31T13:07:52;0.45;;;0.40;;
65751;SDS011;52486;51.098;13.770;2023-10-31T13:10:27;0.50;;;0.50;;
65751;SDS011;52486;51.098;13.770;2023-10-31T13:12:53;0.30;;;0.30;;
65751;SDS011;52486;51.098;13.770;2023-10-31T13:15:20;0.50;;;0.50;;
65751;SDS011;52486;51.098;13.770;2023-10-31T13:20:17;0.43;;;0.43;;
65751;SDS011;52486;51.098;13.770;2023-10-31T13:22:43;0.40;;;0.40;;
65751;SDS011;52486;51.098;13.770;2023-10-31T13:25:10;0.30;;;0.25;;
65751;SDS011;52486;51.098;13.770;2023-10-31T13:27:37;0.50;;;0.50;;
65751;SDS011;52486;51.098;13.770;2023-10-31T13:30:04;0.43;;;0.40;;
65751;SDS011;52486;51.098;13.770;2023-10-31T13:32:30;0.40;;;0.40;;
65751;SDS011;52486;51.098;13.770;2023-10-31T13:34:56;0.30;;;0.30;;
65751;SDS011;52486;51.098;13.770;2023-10-31T13:37:22;0.38;;;0.38;;
65751;SDS011;52486;51.098;13.770;2023-10-31T13:39:48;0.30;;;0.30;;
65751;SDS011;52486;51.098;13.770;2023-10-31T13:42:14;0.43;;;0.43;;
65751;SDS011;52486;51.098;13.770;2023-10-31T13:44:40;0.40;;;0.40;;
65751;SDS011;52486;51.098;13.770;2023-10-31T13:47:06;0.30;;;0.30;;
65751;SDS011;52486;51.098;13.770;2023-10-31T13:49:32;0.40;;;0.40;;
65751;SDS011;52486;51.098;13.770;2023-10-31T13:51:58;0.40;;;0.40;;
65751;SDS011;52486;51.098;13.770;2023-10-31T13:54:24;0.30;;;0.30;;
65751;SDS011;52486;51.098;13.770;2023-10-31T13:56:50;0.45;;;0.45;;
65751;SDS011;52486;51.098;13.770;2023-10-31T13:59:16;0.35;;;0.35;;
65751;SDS011;52486;51.098;13.770;2023-10-31T14:01:43;0.30;;;0.30;;
65751;SDS011;52486;51.098;13.770;2023-10-31T14:04:11;0.30;;;0.30;;
65751;SDS011;52486;51.098;13.770;2023-10-31T14:06:40;0.30;;;0.25;;
65751;SDS011;52486;51.098;13.770;2023-10-31T14:09:07;0.40;;;0.40;;
65751;SDS011;52486;51.098;13.770;2023-10-31T14:11:35;0.30;;;0.30;;
65751;SDS011;52486;51.098;13.770;2023-10-31T14:14:01;0.55;;;0.50;;
65751;SDS011;52486;51.098;13.770;2023-10-31T14:16:38;0.47;;;0.47;;
65751;SDS011;52486;51.098;13.770;2023-10-31T14:19:04;0.30;;;0.30;;
65751;SDS011;52486;51.098;13.770;2023-10-31T14:21:32;0.30;;;0.30;;
65751;SDS011;52486;51.098;13.770;2023-10-31T14:23:58;0.40;;;0.40;;
65751;SDS011;52486;51.098;13.770;2023-10-31T14:26:26;0.63;;;0.50;;
65751;SDS011;52486;51.098;13.770;2023-10-31T14:28:52;0.25;;;0.25;;
65751;SDS011;52486;51.098;13.770;2023-10-31T14:31:18;0.30;;;0.30;;
65751;SDS011;52486;51.098;13.770;2023-10-31T14:33:45;0.30;;;0.30;;
65751;SDS011;52486;51.098;13.770;2023-10-31T14:36:12;0.50;;;0.50;;
65751;SDS011;52486;51.098;13.770;2023-10-31T14:38:38;0.40;;;0.40;;
65751;SDS011;52486;51.098;13.770;2023-10-31T14:41:04;0.47;;;0.47;;
65751;SDS011;52486;51.098;13.770;2023-10-31T14:43:30;0.30;;;0.30;;
65751;SDS011;52486;51.098;13.770;2023-10-31T14:45:57;0.40;;;0.40;;